createdAt,value
2023-01-29T00:00:38.292Z,95763.06
2023-01-29T00:03:23.993Z,95758.81
2023-01-29T00:06:10.544Z,95771.06
2023-01-29T00:08:57.264Z,95768.97
2023-01-29T00:11:43.416Z,95773.00
2023-01-29T00:14:29.245Z,95781.09
2023-01-29T00:17:15.389Z,95767.69
2023-01-29T00:20:01.531Z,95787.50
2023-01-29T00:22:47.620Z,95789.13
2023-01-29T00:25:33.318Z,95780.06
2023-01-29T00:28:19.406Z,95787.84
2023-01-29T00:31:16.038Z,95788.31
2023-01-29T00:34:03.679Z,95783.47
2023-01-29T00:36:49.847Z,95790.94
2023-01-29T00:39:47.381Z,95790.94
2023-01-29T00:42:52.170Z,95787.72
2023-01-29T00:45:38.690Z,95794.34
2023-01-29T00:48:24.926Z,95789.22
2023-01-29T00:51:10.566Z,95797.75
2023-01-29T00:53:58.358Z,95787.06
2023-01-29T00:56:44.131Z,95781.94
2023-01-29T00:59:30.107Z,95793.41
2023-01-29T01:02:35.226Z,95788.00
2023-01-29T01:05:23.107Z,95795.72
2023-01-29T01:08:29.208Z,95794.34
2023-01-29T01:11:16.428Z,95789.00
2023-01-29T01:14:02.276Z,95789.50
2023-01-29T01:16:49.131Z,95778.16
2023-01-29T01:19:35.622Z,95792.13
2023-01-29T01:22:21.647Z,95793.66
2023-01-29T01:25:07.809Z,95796.56
2023-01-29T01:30:44.844Z,95795.13
2023-01-29T01:33:30.642Z,95798.03
2023-01-29T01:36:17.214Z,95796.91
2023-01-29T01:39:03.545Z,95794.53
2023-01-29T01:41:49.225Z,95780.88
2023-01-29T01:45:04.567Z,95794.44
2023-01-29T01:48:01.541Z,95784.00
2023-01-29T01:50:54.121Z,95797.91
2023-01-29T01:53:43.177Z,95790.72
2023-01-29T01:56:38.521Z,95786.44
2023-01-29T01:59:24.310Z,95788.06
2023-01-29T02:02:28.590Z,95780.78
2023-01-29T02:05:33.913Z,95778.88
2023-01-29T02:08:56.647Z,95796.78
2023-01-29T02:11:42.623Z,95791.69
2023-01-29T02:14:28.595Z,95798.72
2023-01-29T02:17:19.224Z,95797.09
2023-01-29T02:20:27.710Z,95798.47
2023-01-29T02:23:27.262Z,95807.28
2023-01-29T02:26:23.282Z,95805.66
2023-01-29T02:29:35.462Z,95811.31
2023-01-29T02:32:24.286Z,95806.28
2023-01-29T02:35:34.727Z,95811.13
2023-01-29T02:38:58.335Z,95821.31
2023-01-29T02:42:03.320Z,95824.03
2023-01-29T02:44:55.403Z,95823.53
2023-01-29T02:48:01.894Z,95813.44
2023-01-29T02:51:10.918Z,95822.78
2023-01-29T02:54:23.902Z,95817.72
2023-01-29T02:57:50.371Z,95824.69
2023-01-29T03:00:40.443Z,95824.69
2023-01-29T03:03:31.522Z,95825.16
2023-01-29T03:06:26.249Z,95814.66
2023-01-29T03:09:35.099Z,95816.47
2023-01-29T03:12:50.295Z,95821.78
2023-01-29T03:15:47.026Z,95821.22
2023-01-29T03:19:11.672Z,95813.72
2023-01-29T03:22:01.279Z,95819.84
2023-01-29T03:25:10.546Z,95823.88
2023-01-29T03:28:21.622Z,95822.28
2023-01-29T03:31:29.331Z,95824.69
2023-01-29T03:34:24.799Z,95820.75
2023-01-29T03:37:22.211Z,95826.88
2023-01-29T03:40:09.733Z,95823.41
2023-01-29T03:43:02.901Z,95824.69
2023-01-29T03:46:14.395Z,95826.00
2023-01-29T03:49:14.350Z,95817.41
2023-01-29T03:52:18.849Z,95810.00
2023-01-29T03:55:21.707Z,95819.59
2023-01-29T03:58:22.195Z,95825.75
2023-01-29T04:01:21.657Z,95827.13
2023-01-29T04:04:37.084Z,95830.34
2023-01-29T04:07:26.744Z,95825.50
2023-01-29T04:10:25.537Z,95818.56
2023-01-29T04:13:12.980Z,95831.66
2023-01-29T04:16:01.789Z,95838.50
2023-01-29T04:19:10.661Z,95835.53
2023-01-29T04:22:22.700Z,95827.78
2023-01-29T04:25:16.380Z,95824.78
2023-01-29T04:28:47.627Z,95843.78
2023-01-29T04:31:44.379Z,95832.31
2023-01-29T04:34:37.396Z,95834.72
2023-01-29T04:37:50.579Z,95849.41
2023-01-29T04:40:54.966Z,95839.25
2023-01-29T04:43:55.973Z,95845.63
2023-01-29T04:47:05.107Z,95838.69
2023-01-29T04:50:14.536Z,95844.50
2023-01-29T04:53:09.244Z,95844.50
2023-01-29T04:56:06.418Z,95844.19
2023-01-29T04:58:56.323Z,95833.78
2023-01-29T05:01:43.922Z,95847.63
2023-01-29T05:04:32.474Z,95842.63
2023-01-29T05:07:20.128Z,95842.41
2023-01-29T05:10:07.828Z,95845.06
2023-01-29T05:13:01.272Z,95843.94
2023-01-29T05:16:24.163Z,95843.94
2023-01-29T05:19:12.281Z,95852.50
2023-01-29T05:21:58.915Z,95849.25
2023-01-29T05:24:44.968Z,95855.72
2023-01-29T05:27:54.424Z,95854.59
2023-01-29T05:30:40.385Z,95841.94
2023-01-29T05:33:28.414Z,95856.19
2023-01-29T05:36:14.086Z,95862.66
2023-01-29T05:38:59.854Z,95863.16
2023-01-29T05:41:45.717Z,95875.44
2023-01-29T05:44:31.566Z,95861.22
2023-01-29T05:47:20.836Z,95864.13
2023-01-29T05:50:07.302Z,95850.25
2023-01-29T05:52:59.683Z,95864.63
2023-01-29T05:55:47.007Z,95880.13
2023-01-29T05:58:33.842Z,95868.56
2023-01-29T06:01:21.896Z,95878.97
2023-01-29T06:04:07.504Z,95873.03
2023-01-29T06:06:53.337Z,95885.84
2023-01-29T06:09:38.984Z,95874.13
2023-01-29T06:12:24.800Z,95891.25
2023-01-29T06:15:11.967Z,95893.44
2023-01-29T06:17:58.015Z,95899.00
2023-01-29T06:20:43.616Z,95889.31
2023-01-29T06:23:31.316Z,95922.53
2023-01-29T06:26:17.142Z,95918.25
2023-01-29T06:29:02.985Z,95919.28
2023-01-29T06:31:48.817Z,95911.59
2023-01-29T06:34:34.984Z,95914.81
2023-01-29T06:37:20.530Z,95927.09
2023-01-29T06:40:07.130Z,95920.97
2023-01-29T06:42:52.988Z,95926.00
2023-01-29T06:45:38.664Z,95925.50
2023-01-29T06:48:25.511Z,95928.72
2023-01-29T06:51:11.784Z,95934.16
2023-01-29T06:53:57.920Z,95939.94
2023-01-29T06:56:43.969Z,95936.81
2023-01-29T06:59:29.784Z,95945.28
2023-01-29T07:02:16.058Z,95945.84
2023-01-29T07:05:02.977Z,95952.22
2023-01-29T07:07:48.582Z,95954.09
2023-01-29T07:10:34.246Z,95946.91
2023-01-29T07:13:20.124Z,95958.13
2023-01-29T07:16:07.024Z,95950.94
2023-01-29T07:18:53.001Z,95953.28
2023-01-29T07:21:38.861Z,95956.75
2023-01-29T07:24:24.953Z,95963.47
2023-01-29T07:27:10.846Z,95956.00
2023-01-29T07:29:56.621Z,95961.34
2023-01-29T07:32:42.476Z,95953.03
2023-01-29T07:35:28.271Z,95952.81
2023-01-29T07:38:14.113Z,95958.69
2023-01-29T07:41:03.008Z,95964.00
2023-01-29T07:43:48.917Z,95962.97
2023-01-29T07:46:34.561Z,95966.19
2023-01-29T07:49:20.615Z,95982.75
2023-01-29T07:52:06.393Z,95977.44
2023-01-29T07:54:52.065Z,95981.72
2023-01-29T07:57:38.771Z,95982.53
2023-01-29T08:00:24.429Z,95982.34
2023-01-29T08:03:16.103Z,95992.53
2023-01-29T08:06:05.022Z,95985.94
2023-01-29T08:08:57.626Z,95987.22
2023-01-29T08:11:43.966Z,95989.88
2023-01-29T08:14:29.751Z,95990.44
2023-01-29T08:17:16.039Z,95997.41
2023-01-29T08:20:03.236Z,95999.72
2023-01-29T08:22:50.073Z,95987.13
2023-01-29T08:25:36.628Z,95994.16
2023-01-29T08:28:22.766Z,95994.97
2023-01-29T08:31:16.475Z,95996.25
2023-01-29T08:34:02.313Z,95991.56
2023-01-29T08:36:48.255Z,95991.66
2023-01-29T08:39:34.644Z,95999.19
2023-01-29T08:42:20.595Z,96000.81
2023-01-29T08:45:07.149Z,96006.94
2023-01-29T08:47:52.869Z,96000.69
2023-01-29T08:50:38.770Z,95999.03
2023-01-29T08:53:24.998Z,96004.03
2023-01-29T08:56:11.118Z,95997.53
2023-01-29T08:58:58.300Z,95998.34
2023-01-29T09:01:44.194Z,96011.44
2023-01-29T09:04:29.940Z,96011.78
2023-01-29T09:07:15.690Z,96014.44
2023-01-29T09:10:01.966Z,96003.78
2023-01-29T09:12:48.081Z,96015.31
2023-01-29T09:15:33.773Z,96010.31
2023-01-29T09:18:22.144Z,96008.00
2023-01-29T09:21:08.372Z,96005.63
2023-01-29T09:23:54.157Z,96011.28
2023-01-29T09:26:40.264Z,96014.06
2023-01-29T09:29:26.191Z,95998.84
2023-01-29T09:32:12.019Z,96003.78
2023-01-29T09:34:57.986Z,96007.88
2023-01-29T09:37:48.096Z,95994.88
2023-01-29T09:41:04.652Z,96000.25
2023-01-29T09:43:55.192Z,96000.34
2023-01-29T09:46:43.818Z,96004.13
2023-01-29T09:49:35.653Z,96006.31
2023-01-29T09:52:28.181Z,96001.53
2023-01-29T09:55:45.504Z,95994.09
2023-01-29T09:58:36.179Z,95992.81
2023-01-29T10:01:38.727Z,95996.69
2023-01-29T10:04:40.941Z,95989.50
2023-01-29T10:07:36.994Z,95996.63
2023-01-29T10:10:41.718Z,95992.34
2023-01-29T10:13:57.256Z,96000.13
2023-01-29T10:16:43.045Z,95989.25
2023-01-29T10:20:07.748Z,95984.16
2023-01-29T10:23:07.333Z,95975.56
2023-01-29T10:25:54.249Z,95983.59
2023-01-29T10:28:46.512Z,95980.69
2023-01-29T10:31:36.613Z,95971.06
2023-01-29T10:34:48.750Z,95970.66
2023-01-29T10:37:43.629Z,95969.16
2023-01-29T10:40:38.571Z,95967.66
2023-01-29T10:43:33.302Z,95962.94
2023-01-29T10:47:06.972Z,95950.97
2023-01-29T10:50:04.526Z,95953.38
2023-01-29T10:53:08.407Z,95949.09
2023-01-29T10:56:31.848Z,95939.78
2023-01-29T10:59:26.560Z,95939.59
2023-01-29T11:02:16.616Z,95936.44
2023-01-29T11:05:02.313Z,95935.88
2023-01-29T11:07:48.592Z,95931.34
2023-01-29T11:10:39.720Z,95929.72
2023-01-29T11:13:31.901Z,95921.94
2023-01-29T11:16:17.680Z,95921.94
2023-01-29T11:19:03.628Z,95926.25
2023-01-29T11:22:01.894Z,95923.56
2023-01-29T11:25:08.298Z,95922.47
2023-01-29T11:28:01.862Z,95925.63
2023-01-29T11:30:47.793Z,95912.78
2023-01-29T11:33:33.596Z,95911.16
2023-01-29T11:36:38.208Z,95914.88
2023-01-29T11:39:25.712Z,95908.50
2023-01-29T11:42:20.109Z,95906.88
2023-01-29T11:45:25.770Z,95903.22
2023-01-29T11:48:17.577Z,95896.06
2023-01-29T11:51:05.607Z,95899.59
2023-01-29T11:54:01.122Z,95892.97
2023-01-29T11:56:48.207Z,95900.09
2023-01-29T11:59:39.796Z,95902.72
2023-01-29T12:02:30.769Z,95897.88
2023-01-29T12:05:22.607Z,95880.69
2023-01-29T12:08:17.605Z,95890.59
2023-01-29T12:11:13.094Z,95886.06
2023-01-29T12:14:01.592Z,95885.59
2023-01-29T12:16:55.411Z,95889.09
2023-01-29T12:19:41.180Z,95883.47
2023-01-29T12:22:45.487Z,95887.31
2023-01-29T12:25:52.295Z,95881.47
2023-01-29T12:28:59.604Z,95887.97
2023-01-29T12:31:54.524Z,95884.28
2023-01-29T12:34:55.687Z,95896.00
2023-01-29T12:37:52.397Z,95887.75
2023-01-29T12:40:47.241Z,95885.31
2023-01-29T12:43:41.352Z,95883.69
2023-01-29T12:46:30.329Z,95884.66
2023-01-29T12:49:24.899Z,95891.03
2023-01-29T12:52:21.742Z,95888.84
2023-01-29T12:55:26.725Z,95893.09
2023-01-29T12:58:25.434Z,95888.19
2023-01-29T13:01:19.595Z,95897.22
2023-01-29T13:04:12.112Z,95894.75
2023-01-29T13:07:11.908Z,95889.25
2023-01-29T13:10:05.783Z,95896.41
2023-01-29T13:13:00.814Z,95895.81
2023-01-29T13:15:48.007Z,95900.00
2023-01-29T13:18:55.269Z,95894.06
2023-01-29T13:21:44.163Z,95891.88
2023-01-29T13:24:40.310Z,95901.50
2023-01-29T13:27:29.157Z,95896.16
2023-01-29T13:30:44.582Z,95892.94
2023-01-29T13:33:31.014Z,95893.53
2023-01-29T13:36:25.717Z,95907.44
2023-01-29T13:39:23.626Z,95902.59
2023-01-29T13:42:21.492Z,95907.63
2023-01-29T13:45:08.786Z,95904.72
2023-01-29T13:48:17.707Z,95910.06
2023-01-29T13:51:04.908Z,95901.50
2023-01-29T13:53:58.069Z,95912.22
2023-01-29T13:56:59.397Z,95925.06
2023-01-29T13:59:50.294Z,95922.72
2023-01-29T14:02:37.625Z,95920.88
2023-01-29T14:05:29.789Z,95933.63
2023-01-29T14:08:15.731Z,95936.78
2023-01-29T14:11:13.609Z,95940.75
2023-01-29T14:13:59.409Z,95937.84
2023-01-29T14:16:45.267Z,95943.50
2023-01-29T14:19:31.432Z,95940.59
2023-01-29T14:22:22.905Z,95941.66
2023-01-29T14:25:18.513Z,95946.41
2023-01-29T14:28:05.685Z,95937.56
2023-01-29T14:30:52.823Z,95941.50
2023-01-29T14:33:41.816Z,95950.00
2023-01-29T14:36:29.936Z,95953.97
2023-01-29T14:39:33.138Z,95946.47
2023-01-29T14:42:29.918Z,95956.31
2023-01-29T14:45:22.231Z,95950.66
2023-01-29T14:48:11.160Z,95948.56
2023-01-29T14:50:59.527Z,95951.47
2023-01-29T14:53:58.636Z,95949.84
2023-01-29T14:56:57.325Z,95949.06
2023-01-29T14:59:55.431Z,95944.75
2023-01-29T15:02:43.979Z,95941.28
2023-01-29T15:05:36.408Z,95938.56
2023-01-29T15:08:30.260Z,95946.47
2023-01-29T15:11:36.486Z,95954.72
2023-01-29T15:14:29.899Z,95949.09
2023-01-29T15:17:20.020Z,95946.97
2023-01-29T15:20:33.448Z,95950.66
2023-01-29T15:23:34.853Z,95951.19
2023-01-29T15:26:24.223Z,95957.31
2023-01-29T15:29:23.357Z,95951.66
2023-01-29T15:32:17.121Z,95959.19
2023-01-29T15:35:07.407Z,95967.19
2023-01-29T15:38:05.599Z,95956.00
2023-01-29T15:40:52.483Z,95951.19
2023-01-29T15:43:44.099Z,95956.00
2023-01-29T15:46:33.820Z,95954.97
2023-01-29T15:49:36.207Z,95961.34
2023-01-29T15:52:28.862Z,95954.41
2023-01-29T15:55:15.684Z,95954.91
2023-01-29T15:58:04.271Z,95956.50
2023-01-29T16:00:54.535Z,95954.09
2023-01-29T16:03:40.630Z,95958.13
2023-01-29T16:06:27.120Z,95958.63
2023-01-29T16:09:19.900Z,95962.91
2023-01-29T16:12:05.933Z,95976.81
2023-01-29T16:14:52.037Z,95971.69
2023-01-29T16:17:40.965Z,95959.09
2023-01-29T16:20:46.004Z,95991.19
2023-01-29T16:23:35.965Z,95979.47
2023-01-29T16:26:28.367Z,95978.31
2023-01-29T16:29:21.885Z,95984.38
2023-01-29T16:32:10.018Z,95982.69
2023-01-29T16:34:58.256Z,95977.59
2023-01-29T16:37:49.060Z,95981.25
2023-01-29T16:40:37.718Z,95983.91
2023-01-29T16:43:43.744Z,95985.53
2023-01-29T16:46:35.908Z,95973.47
2023-01-29T16:49:31.029Z,95988.66
2023-01-29T16:52:27.085Z,95983.81
2023-01-29T16:55:12.957Z,95990.75
2023-01-29T16:58:03.930Z,95992.03
2023-01-29T17:00:53.576Z,95996.56
2023-01-29T17:03:40.488Z,95999.22
2023-01-29T17:06:27.375Z,95990.41
2023-01-29T17:09:22.829Z,95989.63
2023-01-29T17:12:17.383Z,95996.56
2023-01-29T17:15:19.812Z,95989.53
2023-01-29T17:18:19.426Z,95991.16
2023-01-29T17:21:05.252Z,95996.72
2023-01-29T17:23:51.730Z,95988.50
2023-01-29T17:26:37.960Z,95992.22
2023-01-29T17:29:26.841Z,95992.84
2023-01-29T17:32:13.129Z,95999.81
2023-01-29T17:35:00.527Z,95993.91
2023-01-29T17:37:46.681Z,95994.94
2023-01-29T17:40:39.693Z,95993.81
2023-01-29T17:43:27.097Z,95998.66
2023-01-29T17:46:17.779Z,95997.88
2023-01-29T17:49:22.696Z,95999.16
2023-01-29T17:52:09.180Z,95992.22
2023-01-29T17:54:55.242Z,95998.66
2023-01-29T17:57:41.040Z,95984.13
2023-01-29T18:00:26.935Z,95997.06
2023-01-29T18:03:13.405Z,95995.44
2023-01-29T18:06:00.157Z,95992.69
2023-01-29T18:08:45.887Z,95995.34
2023-01-29T18:11:31.611Z,95992.69
2023-01-29T18:14:18.105Z,95988.16
2023-01-29T18:17:04.225Z,95985.25
2023-01-29T18:20:15.271Z,95986.88
2023-01-29T18:23:04.412Z,95994.94
2023-01-29T18:25:50.456Z,95999.47
2023-01-29T18:28:36.608Z,95994.63
2023-01-29T18:31:22.740Z,95993.03
2023-01-29T18:34:08.973Z,95988.50
2023-01-29T18:36:56.142Z,95991.41
2023-01-29T18:39:42.184Z,95997.53
2023-01-29T18:42:31.377Z,95996.72
2023-01-29T18:45:17.515Z,95993.03
2023-01-29T18:48:03.914Z,95994.88
2023-01-29T18:50:50.717Z,95992.22
2023-01-29T18:53:36.812Z,95995.13
2023-01-29T18:56:22.830Z,95993.50
2023-01-29T18:59:10.637Z,95988.16
2023-01-29T19:01:57.351Z,95986.31
2023-01-29T19:04:43.095Z,95992.22
2023-01-29T19:07:29.306Z,95990.19
2023-01-29T19:10:17.084Z,95990.03
2023-01-29T19:13:04.355Z,95997.06
2023-01-29T19:15:51.721Z,95983.03
2023-01-29T19:18:37.841Z,95981.72
2023-01-29T19:21:24.687Z,95975.09
2023-01-29T19:24:11.940Z,95970.00
2023-01-29T19:26:58.028Z,95982.03
2023-01-29T19:29:43.755Z,95986.56
2023-01-29T19:32:31.913Z,95984.13
2023-01-29T19:35:18.087Z,95988.19
2023-01-29T19:38:04.962Z,95987.94
2023-01-29T19:40:52.158Z,95993.03
2023-01-29T19:43:41.019Z,95989.56
2023-01-29T19:46:27.086Z,95981.56
2023-01-29T19:49:13.240Z,95979.47
2023-01-29T19:52:01.700Z,95993.03
2023-01-29T19:54:48.090Z,95981.47
2023-01-29T19:57:34.577Z,95974.75
2023-01-29T20:00:21.623Z,95988.19
2023-01-29T20:03:07.851Z,95974.59
2023-01-29T20:05:53.787Z,95982.19
2023-01-29T20:08:41.448Z,95987.03
2023-01-29T20:11:27.216Z,95964.56
2023-01-29T20:14:13.315Z,95973.72
2023-01-29T20:16:59.297Z,95980.34
2023-01-29T20:19:45.336Z,95973.16
2023-01-29T20:22:31.517Z,95971.53
2023-01-29T20:25:17.898Z,95967.81
2023-01-29T20:28:05.931Z,95971.53
2023-01-29T20:30:55.648Z,95972.09
2023-01-29T20:33:41.654Z,95964.09
2023-01-29T20:36:28.150Z,95961.66
2023-01-29T20:39:14.085Z,95959.25
2023-01-29T20:41:59.921Z,95969.44
2023-01-29T20:44:45.833Z,95970.25
2023-01-29T20:47:31.774Z,95970.25
2023-01-29T20:50:19.999Z,95974.75
2023-01-29T20:53:06.667Z,95980.09
2023-01-29T20:55:52.725Z,95977.34
2023-01-29T20:58:41.258Z,95992.38
2023-01-29T21:01:27.291Z,95990.75
2023-01-29T21:04:15.131Z,95985.09
2023-01-29T21:07:00.987Z,95982.19
2023-01-29T21:09:49.096Z,95989.09
2023-01-29T21:12:35.705Z,95989.88
2023-01-29T21:15:21.718Z,95988.75
2023-01-29T21:18:11.163Z,95985.75
2023-01-29T21:20:56.963Z,95962.06
2023-01-29T21:23:42.955Z,95980.91
2023-01-29T21:26:29.125Z,95974.44
2023-01-29T21:29:15.251Z,95958.06
2023-01-29T21:32:01.368Z,95967.41
2023-01-29T21:34:47.671Z,95965.78
2023-01-29T21:37:36.933Z,95965.88
2023-01-29T21:40:26.830Z,95962.16
2023-01-29T21:43:13.195Z,95969.69
2023-01-29T21:46:03.005Z,95973.97
2023-01-29T21:48:49.217Z,95967.31
2023-01-29T21:51:35.055Z,95959.03
2023-01-29T21:54:22.194Z,95973.00
2023-01-29T21:57:12.693Z,95968.38
2023-01-29T21:59:59.679Z,95975.09
2023-01-29T22:02:46.336Z,95963.31
2023-01-29T22:05:37.160Z,95954.19
2023-01-29T22:08:23.222Z,95963.31
2023-01-29T22:11:10.399Z,95967.03
2023-01-29T22:13:56.473Z,95970.41
2023-01-29T22:16:42.631Z,95956.22
2023-01-29T22:19:29.642Z,95959.66
2023-01-29T22:22:16.877Z,95963.06
2023-01-29T22:25:03.440Z,95950.69
2023-01-29T22:27:50.270Z,95950.22
2023-01-29T22:30:36.173Z,95941.63
2023-01-29T22:33:21.938Z,95942.78
2023-01-29T22:36:08.876Z,95946.50
2023-01-29T22:38:55.213Z,95943.94
2023-01-29T22:41:41.242Z,95947.13
2023-01-29T22:44:27.501Z,95943.41
2023-01-29T22:47:13.413Z,95946.66
2023-01-29T22:49:59.747Z,95947.22
2023-01-29T22:52:54.194Z,95939.00
2023-01-29T22:55:40.285Z,95938.19
2023-01-29T22:58:36.695Z,95944.31
2023-01-29T23:01:25.690Z,95943.56
2023-01-29T23:04:11.577Z,95938.75
2023-01-29T23:06:57.978Z,95941.97
2023-01-29T23:09:44.045Z,95940.38
2023-01-29T23:12:29.940Z,95936.09
2023-01-29T23:15:15.864Z,95928.97
2023-01-29T23:18:01.756Z,95946.66
2023-01-29T23:20:49.061Z,95935.41
2023-01-29T23:23:36.350Z,95932.22
2023-01-29T23:26:40.841Z,95938.81
2023-01-29T23:29:27.120Z,95929.69
2023-01-29T23:32:20.605Z,95930.03
2023-01-29T23:35:06.945Z,95918.78
2023-01-29T23:37:54.054Z,95913.78
2023-01-29T23:40:40.002Z,95915.66
2023-01-29T23:43:26.971Z,95909.81
2023-01-29T23:46:13.103Z,95900.47
2023-01-29T23:48:59.209Z,95902.88
2023-01-29T23:51:48.057Z,95905.28
2023-01-29T23:54:34.067Z,95900.75
2023-01-29T23:57:21.117Z,95900.75
